createdAt,value
2019-05-05T00:01:38.779Z,8.13
2019-05-05T00:04:46.535Z,9.17
2019-05-05T00:07:22.709Z,9.80
2019-05-05T00:09:55.129Z,9.30
2019-05-05T00:13:00.520Z,10.63
2019-05-05T00:15:49.337Z,8.37
2019-05-05T00:18:25.287Z,9.43
2019-05-05T00:20:56.364Z,9.10
2019-05-05T00:23:27.441Z,7.83
2019-05-05T00:25:59.901Z,8.20
2019-05-05T00:28:30.930Z,8.93
2019-05-05T00:31:01.895Z,10.40
2019-05-05T00:33:34.373Z,11.13
2019-05-05T00:36:07.855Z,10.53
2019-05-05T00:38:38.569Z,9.43
2019-05-05T00:41:09.563Z,10.10
2019-05-05T00:43:40.584Z,8.57
2019-05-05T00:46:18.397Z,10.10
2019-05-05T00:48:49.550Z,10.37
2019-05-05T00:51:20.664Z,8.57
2019-05-05T00:53:51.652Z,8.90
2019-05-05T00:56:24.911Z,9.07
2019-05-05T00:59:00.652Z,8.93
2019-05-05T01:01:59.646Z,9.20
2019-05-05T01:04:38.763Z,8.53
2019-05-05T01:07:09.865Z,10.50
2019-05-05T01:09:42.479Z,9.43
2019-05-05T01:12:14.969Z,10.30
2019-05-05T01:14:47.100Z,10.13
2019-05-05T01:17:18.143Z,8.10
2019-05-05T01:20:01.271Z,10.37
2019-05-05T01:22:22.363Z,9.87
2019-05-05T01:24:55.468Z,10.50
2019-05-05T01:27:26.592Z,9.70
2019-05-05T01:29:57.646Z,10.73
2019-05-05T01:32:35.077Z,9.80
2019-05-05T01:35:06.373Z,8.43
2019-05-05T01:37:55.150Z,9.80
2019-05-05T01:40:38.516Z,9.47
2019-05-05T01:43:10.692Z,9.90
2019-05-05T01:45:41.886Z,9.50
2019-05-05T01:48:14.293Z,9.37
2019-05-05T01:50:46.344Z,9.77
2019-05-05T01:53:17.390Z,9.80
2019-05-05T01:55:48.921Z,10.90
2019-05-05T01:58:20.603Z,11.80
2019-05-05T02:00:51.571Z,9.77
2019-05-05T02:03:24.411Z,10.63
2019-05-05T02:05:56.786Z,10.63
2019-05-05T02:08:27.898Z,10.20
2019-05-05T02:10:59.165Z,10.17
2019-05-05T02:13:30.236Z,10.50
2019-05-05T02:16:01.201Z,10.37
2019-05-05T02:18:34.381Z,10.00
2019-05-05T02:21:06.835Z,11.20
2019-05-05T02:23:38.529Z,11.60
2019-05-05T02:26:10.162Z,9.87
2019-05-05T02:28:48.183Z,11.00
2019-05-05T02:31:36.118Z,10.93
2019-05-05T02:34:09.167Z,12.60
2019-05-05T02:36:40.443Z,11.43
2019-05-05T02:39:12.378Z,10.10
2019-05-05T02:41:45.223Z,12.40
2019-05-05T02:44:16.834Z,11.13
2019-05-05T02:46:55.326Z,12.40
2019-05-05T02:49:26.630Z,13.23
2019-05-05T02:51:58.253Z,11.93
2019-05-05T02:54:30.963Z,12.53
2019-05-05T02:57:04.628Z,12.80
2019-05-05T02:59:43.642Z,13.00
2019-05-05T03:02:18.230Z,11.43
2019-05-05T03:04:49.331Z,14.20
2019-05-05T03:07:25.043Z,13.63
2019-05-05T03:09:58.356Z,12.57
2019-05-05T03:12:31.669Z,11.90
2019-05-05T03:15:05.294Z,12.70
2019-05-05T03:17:36.836Z,13.60
2019-05-05T03:20:08.996Z,12.90
2019-05-05T03:22:40.617Z,12.20
2019-05-05T03:25:13.485Z,11.50
2019-05-05T03:27:44.630Z,10.70
2019-05-05T03:30:16.379Z,10.70
2019-05-05T03:32:47.701Z,11.33
2019-05-05T03:35:19.079Z,12.27
2019-05-05T03:37:50.192Z,11.83
2019-05-05T03:40:25.765Z,11.17
2019-05-05T03:43:04.094Z,12.80
2019-05-05T03:45:53.902Z,11.37
2019-05-05T03:48:25.464Z,10.87
2019-05-05T03:50:56.563Z,11.37
2019-05-05T03:53:28.024Z,10.87
2019-05-05T03:55:59.661Z,10.77
2019-05-05T03:58:31.105Z,10.97
2019-05-05T04:01:40.763Z,10.57
2019-05-05T04:04:44.136Z,10.30
2019-05-05T04:07:15.441Z,10.60
2019-05-05T04:09:46.567Z,11.60
2019-05-05T04:12:18.421Z,10.80
2019-05-05T04:14:50.786Z,10.87
2019-05-05T04:17:49.512Z,11.53
2019-05-05T04:20:45.443Z,9.70
2019-05-05T04:23:16.410Z,10.50
2019-05-05T04:25:47.386Z,11.80
2019-05-05T04:28:18.379Z,10.87
2019-05-05T04:30:49.373Z,12.50
2019-05-05T04:33:20.334Z,9.77
2019-05-05T04:35:51.315Z,11.53
2019-05-05T04:38:24.239Z,10.97
2019-05-05T04:40:55.048Z,11.50
2019-05-05T04:43:26.048Z,12.23
2019-05-05T04:45:57.100Z,11.60
2019-05-05T04:48:34.972Z,12.20
2019-05-05T04:51:13.763Z,12.20
2019-05-05T04:54:03.767Z,12.03
2019-05-05T04:56:36.489Z,13.10
2019-05-05T04:59:07.528Z,12.30
2019-05-05T05:01:38.578Z,12.30
2019-05-05T05:04:20.330Z,13.03
2019-05-05T05:06:54.250Z,13.70
2019-05-05T05:09:25.404Z,13.70
2019-05-05T05:11:56.545Z,14.03
2019-05-05T05:14:27.581Z,12.80
2019-05-05T05:17:00.297Z,13.40
2019-05-05T05:19:33.400Z,13.77
2019-05-05T05:22:04.964Z,14.10
2019-05-05T05:24:36.145Z,14.67
2019-05-05T05:27:07.144Z,14.00
2019-05-05T05:29:38.200Z,13.80
2019-05-05T05:32:09.205Z,15.23
2019-05-05T05:34:40.294Z,13.07
2019-05-05T05:37:13.411Z,14.70
2019-05-05T05:39:50.072Z,13.40
2019-05-05T05:42:21.164Z,15.47
2019-05-05T05:45:19.075Z,14.70
2019-05-05T05:48:04.103Z,15.37
2019-05-05T05:50:39.535Z,15.53
2019-05-05T05:53:10.520Z,15.40
2019-05-05T05:55:41.549Z,14.43
2019-05-05T05:58:14.078Z,15.97
2019-05-05T06:00:45.616Z,15.60
2019-05-05T06:03:16.627Z,15.60
2019-05-05T06:05:47.595Z,15.00
2019-05-05T06:08:18.597Z,15.20
2019-05-05T06:10:49.608Z,17.57
2019-05-05T06:13:20.585Z,17.27
2019-05-05T06:15:53.416Z,17.67
2019-05-05T06:18:24.506Z,17.00
2019-05-05T06:20:55.492Z,16.23
2019-05-05T06:23:26.502Z,18.03
2019-05-05T06:25:57.562Z,16.93
2019-05-05T06:28:28.587Z,17.37
2019-05-05T06:30:59.579Z,16.10
2019-05-05T06:33:30.559Z,16.70
2019-05-05T06:36:03.610Z,16.60
2019-05-05T06:38:34.686Z,17.10
2019-05-05T06:41:27.854Z,18.87
2019-05-05T06:44:06.997Z,17.03
2019-05-05T06:46:59.971Z,18.20
2019-05-05T06:49:31.436Z,18.80
2019-05-05T06:52:04.241Z,17.57
2019-05-05T06:54:35.390Z,18.43
2019-05-05T06:57:06.523Z,18.53
2019-05-05T06:59:37.595Z,18.73
2019-05-05T07:02:08.965Z,16.33
2019-05-05T07:04:40.015Z,17.13
2019-05-05T07:07:11.008Z,17.37
2019-05-05T07:09:44.098Z,18.27
2019-05-05T07:12:15.929Z,18.43
2019-05-05T07:14:47.013Z,18.10
2019-05-05T07:17:18.018Z,17.70
2019-05-05T07:19:49.962Z,17.47
2019-05-05T07:22:20.939Z,16.40
2019-05-05T07:24:54.043Z,16.77
2019-05-05T07:27:24.804Z,16.83
2019-05-05T07:29:55.786Z,16.70
2019-05-05T07:32:27.004Z,15.90
2019-05-05T07:35:05.751Z,17.50
2019-05-05T07:37:36.731Z,17.10
2019-05-05T07:40:08.560Z,16.53
2019-05-05T07:42:39.548Z,16.17
2019-05-05T07:45:20.295Z,17.07
2019-05-05T07:47:45.729Z,15.17
2019-05-05T07:50:28.552Z,17.87
2019-05-05T07:52:49.648Z,15.70
2019-05-05T07:55:20.731Z,16.20
2019-05-05T07:57:53.664Z,14.67
2019-05-05T08:00:24.442Z,15.40
2019-05-05T08:02:55.426Z,15.50
2019-05-05T08:05:26.556Z,12.77
2019-05-05T08:07:57.526Z,14.90
2019-05-05T08:10:28.654Z,14.90
2019-05-05T08:13:00.723Z,13.37
2019-05-05T08:15:31.698Z,13.40
2019-05-05T08:18:25.497Z,15.00
2019-05-05T08:20:58.883Z,13.30
2019-05-05T08:23:49.146Z,12.07
2019-05-05T08:26:38.086Z,13.10
2019-05-05T08:29:26.911Z,13.07
2019-05-05T08:32:26.108Z,12.27
2019-05-05T08:35:00.814Z,11.77
2019-05-05T08:37:29.917Z,11.90
2019-05-05T08:40:00.888Z,11.50
2019-05-05T08:42:33.897Z,12.63
2019-05-05T08:45:05.486Z,13.23
2019-05-05T08:47:36.537Z,13.00
2019-05-05T08:50:08.070Z,12.73
2019-05-05T08:52:40.133Z,12.50
2019-05-05T08:55:13.972Z,14.80
2019-05-05T08:57:45.362Z,11.80
2019-05-05T09:00:17.241Z,12.47
2019-05-05T09:02:48.484Z,13.60
2019-05-05T09:05:19.674Z,12.20
2019-05-05T09:07:50.657Z,11.30
2019-05-05T09:10:23.681Z,11.40
2019-05-05T09:12:54.462Z,11.50
2019-05-05T09:15:25.584Z,11.40
2019-05-05T09:17:56.599Z,10.83
2019-05-05T09:20:27.595Z,9.80
2019-05-05T09:22:59.739Z,9.70
2019-05-05T09:25:49.716Z,10.53
2019-05-05T09:28:28.207Z,10.30
2019-05-05T09:30:59.186Z,10.77
2019-05-05T09:33:30.152Z,9.33
2019-05-05T09:36:01.386Z,10.50
2019-05-05T09:38:34.491Z,10.10
2019-05-05T09:41:05.439Z,9.70
2019-05-05T09:43:36.408Z,8.43
2019-05-05T09:46:07.442Z,9.17
2019-05-05T09:48:38.419Z,10.63
2019-05-05T09:51:09.477Z,9.33
2019-05-05T09:53:41.591Z,9.80
2019-05-05T09:56:14.509Z,10.03
2019-05-05T09:58:45.316Z,9.77
2019-05-05T10:01:16.502Z,10.27
2019-05-05T10:03:47.481Z,9.43
2019-05-05T10:06:18.510Z,9.13
2019-05-05T10:08:49.539Z,8.30
2019-05-05T10:11:20.777Z,10.00
2019-05-05T10:13:51.783Z,9.50
2019-05-05T10:16:23.559Z,8.97
2019-05-05T10:18:54.795Z,8.40
2019-05-05T10:21:25.765Z,8.40
2019-05-05T10:23:58.463Z,8.60
2019-05-05T10:26:29.496Z,8.87
2019-05-05T10:29:01.253Z,9.57
2019-05-05T10:31:34.486Z,9.97
2019-05-05T10:34:07.123Z,9.40
2019-05-05T10:36:38.235Z,8.87
2019-05-05T10:39:15.990Z,8.70
2019-05-05T10:41:46.957Z,8.60
2019-05-05T10:44:17.922Z,9.30
2019-05-05T10:46:48.981Z,9.10
2019-05-05T10:49:20.122Z,8.17
2019-05-05T10:51:51.155Z,9.53
2019-05-05T10:54:23.680Z,8.80
2019-05-05T10:56:54.938Z,8.90
2019-05-05T10:59:26.050Z,9.03
2019-05-05T11:01:57.001Z,7.50
2019-05-05T11:04:28.197Z,8.30
2019-05-05T11:06:59.351Z,8.83
2019-05-05T11:09:30.578Z,8.70
2019-05-05T11:12:01.535Z,9.30
2019-05-05T11:14:33.678Z,9.90
2019-05-05T11:17:05.018Z,9.10
2019-05-05T11:19:36.088Z,9.10
2019-05-05T11:22:07.142Z,9.00
2019-05-05T11:24:38.144Z,8.63
2019-05-05T11:27:09.176Z,9.77
2019-05-05T11:29:59.086Z,9.10
2019-05-05T11:32:47.873Z,9.43
2019-05-05T11:35:20.929Z,8.80
2019-05-05T11:37:54.239Z,10.03
2019-05-05T11:40:34.459Z,9.47
2019-05-05T11:43:05.592Z,10.50
2019-05-05T11:45:36.656Z,10.27
2019-05-05T11:48:07.711Z,12.30
2019-05-05T11:50:38.676Z,11.20
2019-05-05T11:53:09.653Z,11.90
2019-05-05T11:55:40.632Z,12.20
2019-05-05T11:58:11.589Z,13.00
2019-05-05T12:00:43.878Z,13.27
2019-05-05T12:03:15.370Z,13.70
2019-05-05T12:05:46.360Z,12.70
2019-05-05T12:08:17.365Z,12.83
2019-05-05T12:10:54.254Z,13.90
2019-05-05T12:13:26.035Z,12.47
2019-05-05T12:16:01.777Z,12.50
2019-05-05T12:18:34.320Z,13.40
2019-05-05T12:21:06.486Z,11.50
2019-05-05T12:23:38.419Z,10.00
2019-05-05T12:26:31.527Z,10.17
2019-05-05T12:29:05.750Z,9.40
2019-05-05T12:31:39.137Z,9.10
2019-05-05T12:34:10.171Z,8.73
2019-05-05T12:36:41.160Z,9.40
2019-05-05T12:39:14.423Z,6.10
2019-05-05T12:41:45.527Z,6.73
2019-05-05T12:44:23.690Z,7.03
2019-05-05T12:47:23.638Z,6.50
2019-05-05T12:49:54.782Z,6.97
2019-05-05T12:52:25.912Z,6.70
2019-05-05T12:54:56.865Z,6.13
2019-05-05T12:57:27.855Z,7.00
2019-05-05T12:59:58.814Z,5.67
2019-05-05T13:02:29.808Z,6.40
2019-05-05T13:05:00.814Z,6.30
2019-05-05T13:07:33.691Z,7.37
2019-05-05T13:10:05.932Z,7.30
2019-05-05T13:12:38.374Z,7.43
2019-05-05T13:15:09.530Z,7.40
2019-05-05T13:17:40.644Z,7.03
2019-05-05T13:20:18.296Z,7.17
2019-05-05T13:23:10.729Z,6.93
2019-05-05T13:25:55.954Z,7.80
2019-05-05T13:28:24.128Z,6.70
2019-05-05T13:30:55.134Z,6.10
2019-05-05T13:33:26.122Z,6.23
2019-05-05T13:35:57.103Z,6.50
2019-05-05T13:38:28.103Z,6.47
2019-05-05T13:40:59.148Z,6.70
2019-05-05T13:43:30.117Z,6.10
2019-05-05T13:46:10.217Z,5.90
2019-05-05T13:48:41.267Z,6.20
2019-05-05T13:51:14.606Z,7.47
2019-05-05T13:53:45.583Z,8.33
2019-05-05T13:56:17.620Z,9.37
2019-05-05T13:58:48.699Z,10.73
2019-05-05T14:01:19.834Z,11.13
2019-05-05T14:03:50.904Z,12.60
2019-05-05T14:06:24.141Z,12.27
2019-05-05T14:08:55.014Z,13.00
2019-05-05T14:11:25.980Z,13.10
2019-05-05T14:13:57.270Z,12.07
2019-05-05T14:16:28.271Z,10.23
2019-05-05T14:18:59.670Z,11.40
2019-05-05T14:21:33.816Z,10.50
2019-05-05T14:24:29.591Z,9.60
2019-05-05T14:27:00.720Z,9.30
2019-05-05T14:29:43.886Z,9.40
2019-05-05T14:32:17.123Z,10.00
2019-05-05T14:34:54.692Z,9.50
2019-05-05T14:37:34.002Z,9.20
2019-05-05T14:40:05.913Z,8.27
2019-05-05T14:42:36.977Z,7.80
2019-05-05T14:45:08.468Z,8.33
2019-05-05T14:47:39.528Z,8.47
2019-05-05T14:50:10.783Z,9.17
2019-05-05T14:52:41.765Z,7.90
2019-05-05T14:55:14.089Z,7.30
2019-05-05T14:57:45.166Z,8.70
2019-05-05T15:00:19.581Z,8.00
2019-05-05T15:02:50.926Z,7.67
2019-05-05T15:05:39.773Z,8.47
2019-05-05T15:08:18.899Z,8.10
2019-05-05T15:11:10.921Z,7.70
2019-05-05T15:13:43.738Z,7.90
2019-05-05T15:16:14.892Z,8.57
2019-05-05T15:18:45.950Z,8.40
2019-05-05T15:21:16.967Z,7.97
2019-05-05T15:23:47.926Z,7.90
2019-05-05T15:26:18.914Z,7.37
2019-05-05T15:28:59.273Z,7.20
2019-05-05T15:31:23.830Z,7.47
2019-05-05T15:33:54.920Z,6.50
2019-05-05T15:36:26.191Z,6.87
2019-05-05T15:38:57.409Z,6.53
2019-05-05T15:41:28.703Z,6.77
2019-05-05T15:43:59.762Z,7.07
2019-05-05T15:46:30.771Z,7.37
2019-05-05T15:49:01.812Z,6.50
2019-05-05T15:51:34.343Z,6.30
2019-05-05T15:54:05.643Z,6.60
2019-05-05T15:56:36.656Z,6.63
2019-05-05T15:59:07.614Z,6.97
2019-05-05T16:01:38.604Z,6.63
2019-05-05T16:04:09.711Z,7.10
2019-05-05T16:06:40.731Z,6.83
2019-05-05T16:09:13.615Z,6.17
2019-05-05T16:11:46.809Z,5.97
2019-05-05T16:14:17.166Z,5.70
2019-05-05T16:17:00.068Z,6.57
2019-05-05T16:19:39.096Z,6.80
2019-05-05T16:22:14.544Z,6.63
2019-05-05T16:24:47.713Z,6.60
2019-05-05T16:27:22.125Z,6.10
2019-05-05T16:29:51.387Z,5.80
2019-05-05T16:32:24.817Z,6.13
2019-05-05T16:34:55.280Z,6.10
2019-05-05T16:37:26.313Z,6.37
2019-05-05T16:39:57.360Z,6.10
2019-05-05T16:42:28.402Z,5.90
2019-05-05T16:44:59.369Z,6.20
2019-05-05T16:47:30.379Z,6.10
2019-05-05T16:50:01.353Z,6.03
2019-05-05T16:52:37.290Z,5.60
2019-05-05T16:55:18.419Z,6.37
2019-05-05T16:57:49.570Z,6.27
2019-05-05T17:00:21.745Z,6.20
2019-05-05T17:02:54.313Z,6.47
2019-05-05T17:05:25.344Z,6.10
2019-05-05T17:07:58.444Z,5.53
2019-05-05T17:10:29.116Z,5.37
2019-05-05T17:13:03.109Z,4.50
2019-05-05T17:15:58.751Z,4.10
2019-05-05T17:18:47.759Z,4.10
2019-05-05T17:21:26.190Z,4.00
2019-05-05T17:23:57.159Z,3.43
2019-05-05T17:26:28.251Z,3.13
2019-05-05T17:28:59.366Z,3.10
2019-05-05T17:31:30.350Z,2.67
2019-05-05T17:34:01.455Z,3.00
2019-05-05T17:36:32.491Z,3.10
2019-05-05T17:39:05.332Z,3.70
2019-05-05T17:41:54.087Z,3.20
2019-05-05T17:44:38.538Z,2.90
2019-05-05T17:47:19.220Z,3.37
2019-05-05T17:49:57.818Z,3.60
2019-05-05T17:52:35.230Z,3.90
2019-05-05T17:55:24.262Z,3.60
2019-05-05T17:58:01.547Z,4.47
2019-05-05T18:00:30.312Z,4.70
2019-05-05T18:03:01.277Z,4.97
2019-05-05T18:06:09.469Z,5.57
2019-05-05T18:08:44.517Z,5.00
2019-05-05T18:11:25.391Z,5.30
2019-05-05T18:14:01.115Z,5.07
2019-05-05T18:16:33.863Z,5.03
2019-05-05T18:19:04.830Z,5.27
2019-05-05T18:21:35.828Z,5.40
2019-05-05T18:24:06.830Z,5.40
2019-05-05T18:26:37.852Z,5.40
2019-05-05T18:29:08.830Z,5.63
2019-05-05T18:31:39.794Z,5.37
2019-05-05T18:34:10.757Z,4.73
2019-05-05T18:36:41.751Z,5.23
2019-05-05T18:39:13.768Z,5.00
2019-05-05T18:41:50.514Z,6.17
2019-05-05T18:44:33.359Z,6.47
2019-05-05T18:47:18.773Z,6.83
2019-05-05T18:49:50.120Z,6.33
2019-05-05T18:52:21.104Z,6.60
2019-05-05T18:54:54.230Z,7.77
2019-05-05T18:57:24.853Z,7.53
2019-05-05T18:59:56.060Z,7.57
2019-05-05T19:02:40.109Z,7.10
2019-05-05T19:05:24.245Z,7.20
2019-05-05T19:08:07.720Z,7.27
2019-05-05T19:10:38.935Z,7.90
2019-05-05T19:13:10.002Z,7.10
2019-05-05T19:15:41.035Z,6.33
2019-05-05T19:18:14.065Z,7.40
2019-05-05T19:21:09.847Z,7.00
2019-05-05T19:23:41.296Z,7.17
2019-05-05T19:26:14.446Z,7.30
2019-05-05T19:28:49.906Z,7.90
2019-05-05T19:31:17.858Z,8.50
2019-05-05T19:33:48.906Z,9.30
2019-05-05T19:36:19.877Z,9.47
2019-05-05T19:38:50.870Z,9.43
2019-05-05T19:41:23.747Z,10.07
2019-05-05T19:43:55.125Z,10.80
2019-05-05T19:46:35.752Z,9.53
2019-05-05T19:49:19.357Z,10.73
2019-05-05T19:51:50.570Z,10.90
2019-05-05T19:54:21.610Z,10.63
2019-05-05T19:56:54.269Z,11.50
2019-05-05T19:59:25.506Z,10.87
2019-05-05T20:01:56.549Z,10.43
2019-05-05T20:04:27.604Z,11.00
2019-05-05T20:06:58.581Z,12.47
2019-05-05T20:09:29.696Z,11.17
2019-05-05T20:12:00.663Z,11.00
2019-05-05T20:14:33.979Z,10.93
2019-05-05T20:17:14.619Z,11.00
2019-05-05T20:19:46.161Z,13.03
2019-05-05T20:22:17.289Z,10.90
2019-05-05T20:24:48.267Z,11.93
2019-05-05T20:27:19.274Z,10.63
2019-05-05T20:29:50.327Z,10.27
2019-05-05T20:32:28.650Z,10.40
2019-05-05T20:35:08.641Z,12.00
2019-05-05T20:37:46.587Z,11.10
2019-05-05T20:40:19.739Z,10.90
2019-05-05T20:42:50.697Z,10.57
2019-05-05T20:45:24.947Z,10.83
2019-05-05T20:47:55.911Z,10.70
2019-05-05T20:50:26.901Z,10.80
2019-05-05T20:52:57.879Z,10.13
2019-05-05T20:55:28.916Z,12.47
2019-05-05T20:57:59.908Z,11.40
2019-05-05T21:00:31.029Z,12.07
2019-05-05T21:03:02.029Z,11.80
2019-05-05T21:05:34.347Z,13.00
2019-05-05T21:08:05.565Z,10.90
2019-05-05T21:10:37.782Z,12.00
2019-05-05T21:13:09.883Z,11.20
2019-05-05T21:15:41.080Z,11.10
2019-05-05T21:18:14.220Z,9.97
2019-05-05T21:20:44.791Z,10.13
2019-05-05T21:23:29.235Z,9.73
2019-05-05T21:26:11.341Z,10.17
2019-05-05T21:28:44.369Z,10.10
2019-05-05T21:31:14.985Z,11.10
2019-05-05T21:33:46.440Z,10.77
2019-05-05T21:36:17.541Z,10.23
2019-05-05T21:38:48.548Z,11.00
2019-05-05T21:41:19.506Z,11.77
2019-05-05T21:43:50.464Z,11.73
2019-05-05T21:46:21.440Z,9.73
2019-05-05T21:48:54.360Z,10.90
2019-05-05T21:51:34.866Z,10.20
2019-05-05T21:54:23.577Z,10.30
2019-05-05T21:57:10.255Z,9.70
2019-05-05T21:59:54.432Z,9.73
2019-05-05T22:02:15.305Z,8.53
2019-05-05T22:04:46.565Z,8.93
2019-05-05T22:07:17.624Z,8.10
2019-05-05T22:09:48.606Z,9.00
2019-05-05T22:12:19.593Z,9.07
2019-05-05T22:14:50.574Z,10.37
2019-05-05T22:17:22.784Z,8.87
2019-05-05T22:20:09.943Z,9.73
2019-05-05T22:22:45.032Z,9.27
2019-05-05T22:25:16.133Z,9.07
2019-05-05T22:27:47.123Z,9.70
2019-05-05T22:30:18.279Z,8.13
2019-05-05T22:32:49.317Z,9.40
2019-05-05T22:35:20.781Z,8.80
2019-05-05T22:37:51.766Z,9.07
2019-05-05T22:40:24.333Z,10.43
2019-05-05T22:42:55.615Z,9.90
2019-05-05T22:45:26.575Z,8.77
2019-05-05T22:47:57.566Z,9.20
2019-05-05T22:50:28.523Z,9.10
2019-05-05T22:52:59.601Z,8.70
2019-05-05T22:55:30.574Z,10.50
2019-05-05T22:58:03.836Z,10.90
2019-05-05T23:00:34.903Z,8.20
2019-05-05T23:03:13.693Z,9.03
2019-05-05T23:05:54.714Z,9.20
2019-05-05T23:08:25.883Z,9.23
2019-05-05T23:10:56.846Z,9.47
2019-05-05T23:13:27.843Z,9.60
2019-05-05T23:16:15.121Z,10.00
2019-05-05T23:18:46.191Z,9.20
2019-05-05T23:21:29.901Z,9.17
2019-05-05T23:24:18.654Z,9.73
2019-05-05T23:26:51.331Z,8.80
2019-05-05T23:29:24.217Z,9.87
2019-05-05T23:31:55.302Z,9.57
2019-05-05T23:34:26.372Z,8.97
2019-05-05T23:36:57.332Z,10.27
2019-05-05T23:39:28.475Z,10.13
2019-05-05T23:41:59.465Z,10.13
2019-05-05T23:44:30.445Z,10.67
2019-05-05T23:47:01.402Z,9.40
2019-05-05T23:49:32.409Z,9.70
2019-05-05T23:52:04.389Z,10.23
2019-05-05T23:54:35.450Z,9.03
2019-05-05T23:57:06.452Z,10.00
2019-05-05T23:59:37.469Z,9.73
